createdAt,value
2023-04-29T00:01:36.128Z,100965.16
2023-04-29T00:04:03.020Z,100967.69
2023-04-29T00:06:30.521Z,100960.28
2023-04-29T00:08:57.019Z,100970.13
2023-04-29T00:11:23.436Z,100970.91
2023-04-29T00:13:49.866Z,100964.94
2023-04-29T00:16:16.294Z,100972.38
2023-04-29T00:18:42.727Z,100975.31
2023-04-29T00:21:09.155Z,100978.03
2023-04-29T00:23:35.548Z,100974.06
2023-04-29T00:26:01.961Z,100986.91
2023-04-29T00:28:28.412Z,100985.00
2023-04-29T00:30:55.994Z,100983.09
2023-04-29T00:33:22.596Z,100986.28
2023-04-29T00:35:49.129Z,100995.56
2023-04-29T00:38:15.522Z,101009.19
2023-04-29T00:40:43.637Z,100988.56
2023-04-29T00:43:10.198Z,101000.28
2023-04-29T00:45:36.600Z,101005.00
2023-04-29T00:48:03.098Z,101010.59
2023-04-29T00:50:30.343Z,101016.91
2023-04-29T00:52:56.987Z,101022.91
2023-04-29T00:55:24.069Z,101021.09
2023-04-29T00:57:52.723Z,101030.34
2023-04-29T01:00:19.428Z,101029.34
2023-04-29T01:02:46.736Z,101032.34
2023-04-29T01:05:13.348Z,101035.47
2023-04-29T01:07:49.056Z,101048.44
2023-04-29T01:10:16.869Z,101043.09
2023-04-29T01:13:01.870Z,101043.97
2023-04-29T01:15:32.015Z,101040.84
2023-04-29T01:18:30.264Z,101056.25
2023-04-29T01:20:58.109Z,101056.53
2023-04-29T01:23:28.448Z,101050.78
2023-04-29T01:25:55.657Z,101057.16
2023-04-29T01:28:46.730Z,101059.09
2023-04-29T01:31:31.388Z,101055.75
2023-04-29T01:34:19.857Z,101053.59
2023-04-29T01:37:18.647Z,101063.16
2023-04-29T01:39:56.808Z,101058.78
2023-04-29T01:42:29.016Z,101066.25
2023-04-29T01:44:56.545Z,101065.59
2023-04-29T01:47:23.457Z,101078.34
2023-04-29T01:49:50.088Z,101076.91
2023-04-29T01:52:16.605Z,101084.47
2023-04-29T01:54:43.345Z,101086.63
2023-04-29T01:57:09.783Z,101085.72
2023-04-29T01:59:36.418Z,101087.09
2023-04-29T02:02:02.787Z,101098.34
2023-04-29T02:04:29.226Z,101101.09
2023-04-29T02:06:55.654Z,101105.00
2023-04-29T02:09:22.067Z,101111.72
2023-04-29T02:11:48.473Z,101115.16
2023-04-29T02:14:14.871Z,101117.19
2023-04-29T02:16:44.419Z,101113.06
2023-04-29T02:19:11.826Z,101130.31
2023-04-29T02:21:40.007Z,101127.16
2023-04-29T02:24:07.065Z,101130.66
2023-04-29T02:26:34.377Z,101131.50
2023-04-29T02:29:00.828Z,101138.63
2023-04-29T02:31:28.976Z,101133.25
2023-04-29T02:33:55.609Z,101150.41
2023-04-29T02:36:22.022Z,101146.22
2023-04-29T02:38:50.711Z,101151.81
2023-04-29T02:41:18.181Z,101164.19
2023-04-29T02:43:44.842Z,101158.81
2023-04-29T02:46:11.473Z,101157.97
2023-04-29T02:48:37.931Z,101164.03
2023-04-29T02:51:04.329Z,101167.13
2023-04-29T02:53:30.767Z,101163.19
2023-04-29T02:55:57.395Z,101168.53
2023-04-29T02:58:23.862Z,101179.69
2023-04-29T03:00:50.747Z,101179.97
2023-04-29T03:03:17.411Z,101169.66
2023-04-29T03:05:44.410Z,101179.81
2023-04-29T03:08:11.225Z,101176.06
2023-04-29T03:10:39.261Z,101187.78
2023-04-29T03:13:07.613Z,101189.69
2023-04-29T03:15:34.021Z,101191.69
2023-04-29T03:18:01.964Z,101184.75
2023-04-29T03:20:29.647Z,101187.44
2023-04-29T03:22:56.190Z,101194.56
2023-04-29T03:25:22.929Z,101195.09
2023-04-29T03:27:49.327Z,101198.81
2023-04-29T03:30:15.699Z,101195.25
2023-04-29T03:32:42.271Z,101192.41
2023-04-29T03:35:08.937Z,101204.19
2023-04-29T03:37:35.474Z,101207.81
2023-04-29T03:40:01.837Z,101220.00
2023-04-29T03:42:28.329Z,101207.59
2023-04-29T03:44:54.898Z,101205.00
2023-04-29T03:47:21.300Z,101213.56
2023-04-29T03:49:47.677Z,101215.91
2023-04-29T03:52:14.100Z,101222.31
2023-04-29T03:54:41.009Z,101225.50
2023-04-29T03:57:07.428Z,101232.91
2023-04-29T03:59:33.982Z,101243.31
2023-04-29T04:02:00.475Z,101239.13
2023-04-29T04:04:27.100Z,101236.50
2023-04-29T04:06:53.610Z,101245.84
2023-04-29T04:09:20.001Z,101252.91
2023-04-29T04:11:46.625Z,101259.66
2023-04-29T04:14:13.027Z,101261.81
2023-04-29T04:16:39.552Z,101259.75
2023-04-29T04:19:06.017Z,101264.63
2023-04-29T04:21:32.403Z,101275.03
2023-04-29T04:23:58.760Z,101283.22
2023-04-29T04:26:25.326Z,101275.34
2023-04-29T04:28:51.823Z,101279.16
2023-04-29T04:31:18.291Z,101283.28
2023-04-29T04:33:44.701Z,101284.91
2023-04-29T04:36:11.311Z,101281.25
2023-04-29T04:38:37.683Z,101288.53
2023-04-29T04:41:07.091Z,101294.75
2023-04-29T04:43:33.673Z,101298.75
2023-04-29T04:46:00.191Z,101299.53
2023-04-29T04:48:26.637Z,101299.72
2023-04-29T04:50:53.036Z,101302.78
2023-04-29T04:53:19.415Z,101322.53
2023-04-29T04:55:46.836Z,101312.06
2023-04-29T04:58:13.238Z,101322.38
2023-04-29T05:00:44.354Z,101327.50
2023-04-29T05:03:10.961Z,101340.31
2023-04-29T05:05:37.826Z,101346.09
2023-04-29T05:08:04.434Z,101352.28
2023-04-29T05:10:30.851Z,101353.31
2023-04-29T05:12:57.297Z,101347.34
2023-04-29T05:15:23.847Z,101352.38
2023-04-29T05:17:50.344Z,101359.06
2023-04-29T05:20:16.833Z,101370.84
2023-04-29T05:22:43.343Z,101367.22
2023-04-29T05:25:10.089Z,101363.66
2023-04-29T05:27:36.473Z,101363.00
2023-04-29T05:30:02.965Z,101368.53
2023-04-29T05:32:29.486Z,101362.63
2023-04-29T05:34:56.644Z,101366.94
2023-04-29T05:37:23.025Z,101375.34
2023-04-29T05:39:49.380Z,101377.56
2023-04-29T05:42:15.862Z,101384.97
2023-04-29T05:44:42.297Z,101384.16
2023-04-29T05:47:08.998Z,101379.53
2023-04-29T05:49:35.658Z,101383.03
2023-04-29T05:52:06.297Z,101384.81
2023-04-29T05:54:33.655Z,101391.69
2023-04-29T05:57:02.338Z,101394.75
2023-04-29T05:59:32.452Z,101405.22
2023-04-29T06:01:59.699Z,101405.47
2023-04-29T06:04:27.059Z,101399.78
2023-04-29T06:06:54.302Z,101404.66
2023-04-29T06:09:27.586Z,101415.94
2023-04-29T06:11:54.544Z,101412.25
2023-04-29T06:14:21.001Z,101421.56
2023-04-29T06:16:49.026Z,101425.19
2023-04-29T06:19:15.536Z,101430.69
2023-04-29T06:21:41.976Z,101430.19
2023-04-29T06:24:09.137Z,101430.44
2023-04-29T06:26:35.523Z,101426.97
2023-04-29T06:29:01.969Z,101441.75
2023-04-29T06:31:28.722Z,101440.56
2023-04-29T06:33:55.251Z,101446.56
2023-04-29T06:36:21.687Z,101454.91
2023-04-29T06:38:48.060Z,101457.25
2023-04-29T06:41:14.474Z,101460.34
2023-04-29T06:43:43.104Z,101457.44
2023-04-29T06:46:09.952Z,101459.97
2023-04-29T06:48:36.809Z,101472.66
2023-04-29T06:51:03.226Z,101478.66
2023-04-29T06:53:29.691Z,101483.50
2023-04-29T06:55:56.218Z,101475.34
2023-04-29T06:58:22.629Z,101486.44
2023-04-29T07:00:50.608Z,101491.88
2023-04-29T07:03:18.179Z,101507.44
2023-04-29T07:05:47.787Z,101497.69
2023-04-29T07:08:14.403Z,101497.47
2023-04-29T07:10:41.683Z,101510.50
2023-04-29T07:13:08.165Z,101513.72
2023-04-29T07:15:35.605Z,101510.00
2023-04-29T07:18:04.354Z,101514.19
2023-04-29T07:20:31.088Z,101513.59
2023-04-29T07:22:57.512Z,101527.59
2023-04-29T07:25:23.951Z,101526.75
2023-04-29T07:27:50.409Z,101525.19
2023-04-29T07:30:16.794Z,101535.25
2023-04-29T07:32:43.273Z,101547.00
2023-04-29T07:35:09.787Z,101539.94
2023-04-29T07:37:36.192Z,101545.22
2023-04-29T07:40:02.572Z,101547.59
2023-04-29T07:42:28.993Z,101558.59
2023-04-29T07:44:55.852Z,101570.03
2023-04-29T07:47:22.286Z,101565.41
2023-04-29T07:49:48.756Z,101567.84
2023-04-29T07:52:15.146Z,101577.91
2023-04-29T07:54:41.542Z,101571.06
2023-04-29T07:57:07.969Z,101578.94
2023-04-29T07:59:34.355Z,101571.84
2023-04-29T08:02:00.994Z,101588.56
2023-04-29T08:04:27.573Z,101581.50
2023-04-29T08:06:54.241Z,101583.28
2023-04-29T08:09:21.221Z,101584.25
2023-04-29T08:11:47.679Z,101592.66
2023-04-29T08:14:14.187Z,101600.75
2023-04-29T08:16:40.824Z,101599.81
2023-04-29T08:19:07.512Z,101597.97
2023-04-29T08:21:34.816Z,101603.38
2023-04-29T08:24:01.354Z,101596.69
2023-04-29T08:26:28.134Z,101588.00
2023-04-29T08:28:54.620Z,101601.44
2023-04-29T08:31:21.829Z,101618.03
2023-04-29T08:33:48.772Z,101619.53
2023-04-29T08:36:15.486Z,101621.69
2023-04-29T08:38:41.930Z,101632.78
2023-04-29T08:41:11.968Z,101619.28
2023-04-29T08:43:40.800Z,101639.31
2023-04-29T08:46:07.831Z,101638.47
2023-04-29T08:48:36.128Z,101638.28
2023-04-29T08:51:02.736Z,101649.38
2023-04-29T08:53:29.373Z,101659.56
2023-04-29T08:56:05.301Z,101647.53
2023-04-29T08:58:34.446Z,101650.22
2023-04-29T09:01:01.082Z,101658.50
2023-04-29T09:03:32.262Z,101658.03
2023-04-29T09:06:00.789Z,101661.75
2023-04-29T09:08:27.693Z,101660.22
2023-04-29T09:10:54.659Z,101667.81
2023-04-29T09:13:25.401Z,101668.50
2023-04-29T09:15:52.011Z,101660.41
2023-04-29T09:18:44.154Z,101669.25
2023-04-29T09:21:15.574Z,101662.72
2023-04-29T09:23:42.348Z,101672.44
2023-04-29T09:26:08.780Z,101670.03
2023-04-29T09:28:35.234Z,101673.38
2023-04-29T09:31:06.241Z,101676.13
2023-04-29T09:33:33.112Z,101669.03
2023-04-29T09:36:00.889Z,101670.44
2023-04-29T09:38:27.284Z,101673.28
2023-04-29T09:40:59.463Z,101695.53
2023-04-29T09:43:27.291Z,101675.03
2023-04-29T09:45:53.895Z,101689.25
2023-04-29T09:48:20.423Z,101682.19
2023-04-29T09:51:01.550Z,101681.00
2023-04-29T09:53:29.756Z,101678.31
2023-04-29T09:56:01.503Z,101677.22
2023-04-29T09:58:38.223Z,101670.25
2023-04-29T10:01:05.382Z,101689.22
2023-04-29T10:03:34.777Z,101688.69
2023-04-29T10:06:02.626Z,101696.06
2023-04-29T10:08:29.721Z,101683.81
2023-04-29T10:10:59.944Z,101694.03
2023-04-29T10:13:28.295Z,101700.75
2023-04-29T10:16:01.963Z,101699.38
2023-04-29T10:18:37.582Z,101695.16
2023-04-29T10:21:08.139Z,101701.59
2023-04-29T10:23:34.904Z,101699.13
2023-04-29T10:26:03.842Z,101694.38
2023-04-29T10:28:33.677Z,101703.28
2023-04-29T10:31:05.101Z,101704.84
2023-04-29T10:33:33.839Z,101710.00
2023-04-29T10:36:01.144Z,101707.97
2023-04-29T10:38:36.137Z,101717.69
2023-04-29T10:41:10.935Z,101705.78
2023-04-29T10:43:37.413Z,101709.72
2023-04-29T10:46:16.276Z,101708.84
2023-04-29T10:48:46.988Z,101709.66
2023-04-29T10:51:14.405Z,101706.47
2023-04-29T10:54:01.302Z,101711.91
2023-04-29T10:56:41.201Z,101711.53
2023-04-29T10:59:13.028Z,101722.44
2023-04-29T11:01:52.919Z,101718.50
2023-04-29T11:04:23.001Z,101729.84
2023-04-29T11:06:55.099Z,101720.25
2023-04-29T11:09:24.467Z,101728.91
2023-04-29T11:12:06.593Z,101723.53
2023-04-29T11:14:43.185Z,101722.19
2023-04-29T11:17:10.037Z,101723.38
2023-04-29T11:19:47.481Z,101711.06
2023-04-29T11:22:21.517Z,101731.16
2023-04-29T11:25:02.064Z,101718.44
2023-04-29T11:27:36.356Z,101718.91
2023-04-29T11:30:05.281Z,101728.81
2023-04-29T11:32:33.446Z,101719.19
2023-04-29T11:35:13.253Z,101728.38
2023-04-29T11:37:41.080Z,101712.88
2023-04-29T11:40:08.676Z,101734.97
2023-04-29T11:42:39.157Z,101730.31
2023-04-29T11:45:06.913Z,101735.06
2023-04-29T11:47:33.408Z,101726.38
2023-04-29T11:50:04.821Z,101738.47
2023-04-29T11:52:31.275Z,101739.13
2023-04-29T11:54:59.636Z,101745.25
2023-04-29T11:57:26.751Z,101745.25
2023-04-29T11:59:53.640Z,101748.13
2023-04-29T12:02:23.781Z,101745.63
2023-04-29T12:04:51.105Z,101742.75
2023-04-29T12:07:18.110Z,101748.50
2023-04-29T12:09:45.042Z,101741.75
2023-04-29T12:12:12.152Z,101741.31
2023-04-29T12:14:38.747Z,101771.97
2023-04-29T12:17:05.824Z,101750.25
2023-04-29T12:19:32.432Z,101768.84
2023-04-29T12:21:59.541Z,101756.16
2023-04-29T12:24:25.966Z,101759.16
2023-04-29T12:26:54.030Z,101765.75
2023-04-29T12:29:23.431Z,101765.34
2023-04-29T12:31:51.370Z,101762.38
2023-04-29T12:34:18.093Z,101766.13
2023-04-29T12:36:44.663Z,101764.63
2023-04-29T12:39:11.388Z,101769.88
2023-04-29T12:41:42.112Z,101765.38
2023-04-29T12:44:10.842Z,101760.44
2023-04-29T12:46:39.138Z,101781.38
2023-04-29T12:49:06.081Z,101765.03
2023-04-29T12:51:33.165Z,101778.31
2023-04-29T12:54:04.227Z,101764.88
2023-04-29T12:56:31.751Z,101782.53
2023-04-29T12:59:06.378Z,101781.47
2023-04-29T13:01:33.218Z,101775.69
2023-04-29T13:03:59.847Z,101779.72
2023-04-29T13:06:27.409Z,101782.72
2023-04-29T13:08:54.542Z,101799.75
2023-04-29T13:11:21.147Z,101785.75
2023-04-29T13:13:47.457Z,101790.91
2023-04-29T13:16:13.871Z,101791.34
2023-04-29T13:18:40.246Z,101793.41
2023-04-29T13:21:06.566Z,101794.19
2023-04-29T13:23:33.073Z,101795.41
2023-04-29T13:25:59.439Z,101797.00
2023-04-29T13:28:25.839Z,101791.50
2023-04-29T13:30:52.263Z,101800.34
2023-04-29T13:33:19.599Z,101789.44
2023-04-29T13:35:46.953Z,101791.09
2023-04-29T13:38:13.666Z,101794.50
2023-04-29T13:40:45.991Z,101806.53
2023-04-29T13:43:15.910Z,101789.66
2023-04-29T13:45:49.109Z,101789.59
2023-04-29T13:48:28.342Z,101796.34
2023-04-29T13:56:58.314Z,101795.75
2023-04-29T14:01:44.113Z,101801.63
2023-04-29T14:04:03.291Z,101824.25
2023-04-29T14:06:32.362Z,101827.72
2023-04-29T14:09:00.038Z,101817.50
2023-04-29T14:11:27.562Z,101815.66
2023-04-29T14:13:53.914Z,101811.22
2023-04-29T14:16:20.482Z,101822.34
2023-04-29T14:18:47.016Z,101813.75
2023-04-29T14:21:13.894Z,101822.88
2023-04-29T14:23:41.152Z,101831.56
2023-04-29T14:26:23.113Z,101823.53
2023-04-29T14:28:57.671Z,101831.28
2023-04-29T14:31:24.637Z,101824.91
2023-04-29T14:33:51.774Z,101840.13
2023-04-29T14:36:18.208Z,101845.44
2023-04-29T14:38:44.530Z,101847.38
2023-04-29T14:41:10.924Z,101848.72
2023-04-29T14:43:37.305Z,101844.91
2023-04-29T14:46:03.728Z,101841.97
2023-04-29T14:48:30.079Z,101862.03
2023-04-29T14:50:56.479Z,101859.56
2023-04-29T14:53:22.803Z,101855.53
2023-04-29T14:55:52.190Z,101847.03
2023-04-29T14:58:18.696Z,101860.13
2023-04-29T15:00:45.005Z,101862.91
2023-04-29T15:03:20.011Z,101892.72
2023-04-29T15:05:49.950Z,101874.34
2023-04-29T15:08:17.554Z,101876.00
2023-04-29T15:10:46.585Z,101871.94
2023-04-29T15:13:13.110Z,101885.78
2023-04-29T15:15:39.491Z,101890.03
2023-04-29T15:18:07.685Z,101877.38
2023-04-29T15:20:34.714Z,101891.41
2023-04-29T15:23:01.134Z,101892.38
2023-04-29T15:25:27.722Z,101901.53
2023-04-29T15:27:54.163Z,101886.69
2023-04-29T15:30:20.727Z,101896.69
2023-04-29T15:32:47.085Z,101894.31
2023-04-29T15:35:13.453Z,101906.16
2023-04-29T15:37:39.944Z,101910.00
2023-04-29T15:40:06.679Z,101910.75
2023-04-29T15:42:33.060Z,101905.97
2023-04-29T15:44:59.335Z,101904.72
2023-04-29T15:47:25.731Z,101900.25
2023-04-29T15:49:54.348Z,101907.66
2023-04-29T15:52:20.948Z,101911.31
2023-04-29T15:54:47.361Z,101973.56
2023-04-29T15:57:14.100Z,101949.25
2023-04-29T15:59:40.555Z,101929.81
2023-04-29T16:02:10.700Z,101927.16
2023-04-29T16:04:40.250Z,101948.56
2023-04-29T16:07:06.817Z,101926.56
2023-04-29T16:09:33.722Z,101941.88
2023-04-29T16:12:00.561Z,101965.28
2023-04-29T16:14:26.956Z,101962.66
2023-04-29T16:16:53.641Z,101948.00
2023-04-29T16:19:20.118Z,101956.75
2023-04-29T16:21:46.563Z,101946.63
2023-04-29T16:24:13.401Z,101945.34
2023-04-29T16:26:43.228Z,101950.06
2023-04-29T16:29:10.102Z,101953.81
2023-04-29T16:31:36.505Z,101948.00
2023-04-29T16:34:03.310Z,101950.59
2023-04-29T16:36:30.126Z,101954.78
2023-04-29T16:38:57.818Z,101958.47
2023-04-29T16:41:26.035Z,101963.53
2023-04-29T16:43:53.833Z,101965.53
2023-04-29T16:46:20.326Z,101964.25
2023-04-29T16:48:47.072Z,101960.28
2023-04-29T16:51:13.463Z,101956.22
2023-04-29T16:53:39.870Z,101958.78
2023-04-29T16:56:06.568Z,101959.88
2023-04-29T16:58:32.964Z,101972.44
2023-04-29T17:00:59.366Z,101965.91
2023-04-29T17:03:25.879Z,101959.78
2023-04-29T17:05:52.610Z,101967.22
2023-04-29T17:08:19.096Z,101963.81
2023-04-29T17:10:45.511Z,101969.75
2023-04-29T17:13:11.977Z,101970.84
2023-04-29T17:15:38.388Z,101973.75
2023-04-29T17:18:04.877Z,101977.09
2023-04-29T17:20:31.573Z,101976.81
2023-04-29T17:22:58.025Z,101974.97
2023-04-29T17:25:24.433Z,101984.63
2023-04-29T17:27:51.001Z,101981.22
2023-04-29T17:30:17.425Z,101981.34
2023-04-29T17:32:44.444Z,101980.50
2023-04-29T17:35:11.565Z,101987.69
2023-04-29T17:37:38.259Z,101981.38
2023-04-29T17:40:05.235Z,101991.56
2023-04-29T17:42:31.673Z,101978.47
2023-04-29T17:44:58.113Z,101980.22
2023-04-29T17:47:24.600Z,101983.81
2023-04-29T17:49:51.882Z,101984.88
2023-04-29T17:52:21.282Z,101981.47
2023-04-29T17:54:48.671Z,101981.13
2023-04-29T17:57:15.094Z,101993.19
2023-04-29T17:59:41.540Z,101994.22
2023-04-29T18:02:07.897Z,101991.84
2023-04-29T18:04:34.469Z,101995.75
2023-04-29T18:07:01.738Z,101993.78
2023-04-29T18:09:28.145Z,102000.88
2023-04-29T18:11:54.625Z,102001.28
2023-04-29T18:14:21.449Z,102002.81
2023-04-29T18:16:47.908Z,101999.03
2023-04-29T18:19:14.550Z,102012.63
2023-04-29T18:21:41.027Z,102001.88
2023-04-29T18:24:07.845Z,102009.81
2023-04-29T18:26:34.242Z,102018.09
2023-04-29T18:29:00.778Z,101999.72
2023-04-29T18:31:27.245Z,102010.19
2023-04-29T18:33:53.962Z,102010.06
2023-04-29T18:36:23.668Z,102006.66
2023-04-29T18:38:50.662Z,102018.63
2023-04-29T18:41:17.358Z,102009.94
2023-04-29T18:43:43.802Z,102018.75
2023-04-29T18:46:10.250Z,102019.53
2023-04-29T18:48:38.243Z,102025.31
2023-04-29T18:51:05.933Z,102019.63
2023-04-29T18:53:32.533Z,102023.38
2023-04-29T18:55:59.042Z,102022.81
2023-04-29T18:58:28.316Z,102037.41
2023-04-29T19:00:55.209Z,102031.50
2023-04-29T19:03:21.682Z,102032.97
2023-04-29T19:05:48.208Z,102040.97
2023-04-29T19:08:17.506Z,102046.84
2023-04-29T19:10:44.663Z,102052.53
2023-04-29T19:13:11.547Z,102060.16
2023-04-29T19:15:38.732Z,102055.22
2023-04-29T19:18:05.312Z,102065.03
2023-04-29T19:20:32.816Z,102067.16
2023-04-29T19:22:59.193Z,102062.72
2023-04-29T19:25:28.530Z,102071.94
2023-04-29T19:27:54.964Z,102080.91
2023-04-29T19:30:21.643Z,102072.91
2023-04-29T19:32:48.603Z,102081.34
2023-04-29T19:35:15.109Z,102077.66
2023-04-29T19:37:41.506Z,102095.13
2023-04-29T19:40:10.515Z,102084.09
2023-04-29T19:42:37.803Z,102087.03
2023-04-29T19:45:07.535Z,102091.66
2023-04-29T19:47:34.801Z,102105.47
2023-04-29T19:50:02.052Z,102093.38
2023-04-29T19:52:29.677Z,102097.09
2023-04-29T19:54:56.386Z,102095.97
2023-04-29T19:57:22.776Z,102092.47
2023-04-29T19:59:49.222Z,102084.84
2023-04-29T20:02:15.739Z,102098.97
2023-04-29T20:04:42.469Z,102094.19
2023-04-29T20:07:08.970Z,102094.81
2023-04-29T20:09:35.386Z,102102.28
2023-04-29T20:12:04.057Z,102101.94
2023-04-29T20:14:30.714Z,102103.66
2023-04-29T20:16:59.637Z,102103.50
2023-04-29T20:19:26.895Z,102107.16
2023-04-29T20:21:53.697Z,102104.66
2023-04-29T20:24:20.138Z,102110.19
2023-04-29T20:26:46.597Z,102105.75
2023-04-29T20:29:12.976Z,102106.50
2023-04-29T20:31:39.446Z,102110.72
2023-04-29T20:34:05.899Z,102112.44
2023-04-29T20:36:32.857Z,102119.69
2023-04-29T20:38:59.259Z,102118.28
2023-04-29T20:41:29.285Z,102122.88
2023-04-29T20:43:56.255Z,102116.38
2023-04-29T20:46:24.649Z,102118.66
2023-04-29T20:48:52.402Z,102113.91
2023-04-29T20:51:18.818Z,102121.53
2023-04-29T20:53:45.611Z,102123.09
2023-04-29T20:56:12.050Z,102128.75
2023-04-29T20:58:38.459Z,102124.84
2023-04-29T21:01:04.972Z,102122.94
2023-04-29T21:03:31.371Z,102127.69
2023-04-29T21:05:58.007Z,102128.03
2023-04-29T21:08:24.371Z,102131.41
2023-04-29T21:10:51.101Z,102128.34
2023-04-29T21:13:17.831Z,102132.81
2023-04-29T21:15:47.279Z,102139.47
2023-04-29T21:18:13.894Z,102140.38
2023-04-29T21:20:40.586Z,102134.47
2023-04-29T21:23:07.033Z,102140.94
2023-04-29T21:25:33.514Z,102141.22
2023-04-29T21:27:59.895Z,102141.69
2023-04-29T21:30:32.883Z,102145.56
2023-04-29T21:32:59.334Z,102149.38
2023-04-29T21:35:26.774Z,102152.69
2023-04-29T21:37:53.166Z,102150.75
2023-04-29T21:40:19.738Z,102152.19
2023-04-29T21:42:46.345Z,102155.09
2023-04-29T21:45:17.641Z,102155.38
2023-04-29T21:47:44.181Z,102148.47
2023-04-29T21:50:11.562Z,102155.44
2023-04-29T21:52:38.017Z,102155.84
2023-04-29T21:55:05.107Z,102154.91
2023-04-29T21:57:42.802Z,102155.69
2023-04-29T22:00:20.797Z,102154.44
2023-04-29T22:02:47.233Z,102145.03
2023-04-29T22:05:13.835Z,102145.41
2023-04-29T22:07:40.500Z,102145.00
2023-04-29T22:10:07.397Z,102149.16
2023-04-29T22:12:33.782Z,102147.47
2023-04-29T22:15:00.302Z,102157.16
2023-04-29T22:17:26.727Z,102150.19
2023-04-29T22:19:53.471Z,102148.31
2023-04-29T22:22:20.064Z,102158.84
2023-04-29T22:24:46.461Z,102150.41
2023-04-29T22:27:12.837Z,102161.94
2023-04-29T22:29:39.389Z,102163.63
2023-04-29T22:32:05.966Z,102160.50
2023-04-29T22:34:32.371Z,102162.97
2023-04-29T22:36:58.761Z,102160.84
2023-04-29T22:39:25.216Z,102167.38
2023-04-29T22:41:51.601Z,102162.00
2023-04-29T22:44:18.017Z,102173.06
2023-04-29T22:46:44.549Z,102163.59
2023-04-29T22:49:10.992Z,102168.81
2023-04-29T22:51:37.493Z,102166.41
2023-04-29T22:54:03.945Z,102167.94
2023-04-29T22:56:30.499Z,102167.69
2023-04-29T22:58:56.991Z,102164.38
2023-04-29T23:01:23.542Z,102160.88
2023-04-29T23:03:49.963Z,102167.09
2023-04-29T23:06:16.444Z,102174.28
2023-04-29T23:08:44.476Z,102171.22
2023-04-29T23:11:11.497Z,102179.72
2023-04-29T23:13:38.157Z,102178.13
2023-04-29T23:16:04.942Z,102182.00
2023-04-29T23:18:31.437Z,102181.66
2023-04-29T23:20:57.827Z,102183.97
2023-04-29T23:23:24.655Z,102181.53
2023-04-29T23:25:51.038Z,102175.16
2023-04-29T23:28:17.442Z,102181.53
2023-04-29T23:30:46.360Z,102183.94
2023-04-29T23:33:13.153Z,102190.56
2023-04-29T23:35:39.590Z,102192.63
2023-04-29T23:38:05.990Z,102195.88
2023-04-29T23:40:32.541Z,102198.34
2023-04-29T23:42:58.932Z,102197.31
2023-04-29T23:45:25.302Z,102200.97
2023-04-29T23:47:51.776Z,102192.91
2023-04-29T23:50:18.302Z,102203.91
2023-04-29T23:52:44.697Z,102210.13
2023-04-29T23:55:11.098Z,102206.72
2023-04-29T23:57:37.548Z,102201.84
